Extended Streamflow Prediction
Issued by NWS Lower Mississippi RFC

Current Version | Previous Version | Graphics & Text | Print | Product List | Glossary On
Versions: 1 2 3 4 5 6 7 8 9 10 11 12 13 14 15 16 17 18 19 20 21 22 23 24 25 26 27 28 29 30 31 32 33 34 35 36 37 38 39 40 41 42 43 44 45 46 47 48 49 50
000
FGUS64 KORN 171623
ESPORN

EXTENDED STREAMFLOW PREDICTION
NATIONAL WEATHER SERVICE RIVER FORECAST CENTER, SLIDELL, LA
1122 AM CDT MON JUN 17 2019

   DATE   CPGM7 CIRI2 NMDM7 TPTT1 CRTM7 OSGA4 MEMT1 TRPM6 HEEA4
06-18-19   44.7  47.3  36.2  38.2  36.1  32.1  32.6  44.4  41.7
06-19-19   44.2  47.2  36.0  38.0  35.8  31.9  32.4  44.3  41.6
06-20-19   43.6  47.1  35.9  37.8  35.6  31.7  32.3  44.1  41.4
06-21-19   43.0  47.2  35.9  37.8  35.6  31.5  32.1  43.9  41.3
06-22-19   42.5  47.4  36.0  37.9  35.6  31.4  31.9  43.8  41.1
06-23-19   42.0  47.6  36.1  38.0  35.7  31.4  31.9  43.7  41.0
06-24-19   41.4  47.8  36.3  38.2  35.8  31.5  31.9  43.6  40.9
06-25-19   40.9  48.0  36.4  38.3  35.9  31.6  32.0  43.6  40.9
06-26-19   40.4  47.9  36.5  38.5  35.9  31.7  32.1  43.7  40.9
06-27-19   39.9  47.0  36.3  38.4  36.0  31.8  32.2  43.8  40.9
06-28-19   39.3  45.7  35.4  37.9  35.8  32.0  32.4  43.9  40.9
06-29-19   38.8  44.4  34.5  37.0  35.2  31.7  32.5  44.0  40.9
06-30-19   38.3  43.2  33.5  36.1  34.5  31.0  32.3  44.0  41.0
07-01-19   37.7  42.1  32.6  35.2  33.6  30.1  31.6  43.5  41.0
07-02-19   37.3  41.1  31.6  34.4  32.8  29.2  30.8  42.9  40.5
07-03-19   36.8  40.1  30.9  33.6  32.1  28.4  30.1  42.2  40.0
07-04-19   36.4  39.1  30.2  32.9  31.4  27.5  29.3  41.5  39.4
07-05-19   35.9  38.1  29.4  32.2  30.7  26.7  28.6  40.9  38.9
07-06-19   35.3  37.1  28.7  31.5  30.0  26.0  27.8  40.2  38.3
07-07-19   34.6  36.3  27.9  30.8  29.3  25.2  27.1  39.5  37.7
07-08-19   34.0  35.5  27.2  30.1  28.7  24.4  26.4  38.9  37.1
07-09-19   33.3  34.7  26.4  29.4  28.1  23.7  25.7  38.2  36.5
07-10-19   32.6  34.0  25.7  28.7  27.5  23.0  25.0  37.6  35.9
07-11-19   32.0  33.2  25.0  28.1  26.9  22.4  24.3  37.0  35.3
07-12-19   31.5  32.6  24.3  27.4  26.3  21.7  23.8  36.5  34.7
07-13-19   31.1  31.9  23.7  26.8  25.6  21.1  23.2  35.9  34.2
07-14-19   30.8  31.4  23.2  26.3  25.1  20.4  22.6  35.3  33.7
07-15-19   30.4  31.0  22.6  25.8  24.6  19.8  22.1  34.8  33.1

   DATE   ARSA4 GEEM6 VCKM6 NTZM6 RRLL1 BTRL1 DONL1 RRVL1 NORL1
06-18-19   41.6  54.1  49.7  57.3  61.0  43.4  31.1  23.4  16.7
06-19-19   41.5  53.9  49.5  57.1  60.9  43.3  31.0  23.4  16.7
06-20-19   41.4  53.8  49.3  56.9  60.8  43.2  30.9  23.3  16.7
06-21-19   41.3  53.7  49.1  56.7  60.7  43.1  30.9  23.3  16.6
06-22-19   41.2  53.6  48.9  56.5  60.6  43.0  30.8  23.3  16.6
06-23-19   41.1  53.5  48.8  56.3  60.4  43.0  30.8  23.3  16.6
06-24-19   41.0  53.5  48.7  56.2  60.3  42.9  30.7  23.3  16.6
06-25-19   40.9  53.4  48.6  56.1  60.1  42.8  30.7  23.3  16.6
06-26-19   40.9  53.3  48.5  56.0  60.1  42.7  30.6  23.3  16.6
06-27-19   40.8  53.3  48.4  55.9  60.0  42.6  30.6  23.3  16.6
06-28-19   40.8  53.3  48.3  55.9  59.9  42.5  30.5  23.3  16.6
06-29-19   40.8  53.3  48.2  55.8  59.8  42.5  30.5  23.3  16.6
06-30-19   40.8  53.3  48.2  55.8  59.8  42.4  30.4  23.3  16.6
07-01-19   40.9  53.3  48.3  55.7  59.7  42.3  30.4  23.3  16.6
07-02-19   40.9  53.4  48.3  55.7  59.7  42.3  30.4  23.3  16.6
07-03-19   40.9  53.5  48.3  55.7  59.7  42.2  30.3  23.3  16.6
07-04-19   40.7  53.5  48.4  55.7  59.7  42.2  30.3  23.3  16.6
07-05-19   40.3  53.2  48.5  55.7  59.7  42.2  30.3  23.3  16.6
07-06-19   39.9  52.8  48.4  55.8  59.7  42.2  30.3  23.3  16.6
07-07-19   39.3  52.3  48.2  55.8  59.7  42.2  30.2  23.3  16.6
07-08-19   38.8  51.8  47.8  55.7  59.7  42.2  30.2  23.3  16.6
07-09-19   38.3  51.3  47.5  55.5  59.7  42.2  30.2  23.3  16.6
07-10-19   37.9  50.8  47.2  55.2  59.6  42.1  30.2  23.3  16.6
07-11-19   37.4  50.3  46.9  54.8  59.4  42.1  30.2  23.3  16.6
07-12-19   36.9  49.8  46.4  54.4  59.1  42.0  30.2  23.3  16.6
07-13-19   36.5  49.3  46.0  54.0  58.8  41.7  30.1  23.3  16.6
07-14-19   36.1  49.0  45.5  53.6  58.4  41.4  29.9  23.2  16.6
07-15-19   35.7  48.6  45.1  53.2  58.1  41.1  29.8  23.1  16.5

NOTE: STAGE FORECASTS ARE BASED ON FUTURE RAINFALL COVERING
THE NEXT 48 HOURS.

END ORN


$$




USA.gov is the U.S. government's official web portal to all federal, state and local government web resources and services.